Time;durP1;ratioP1;P1;durP2;ratioP2;P2;SDS_P1;SDS_P2;PMS_P1;PMS_P2;Temp;Humidity;BMP_temperature;BMP_pressure;BME280_temperature;BME280_humidity;BME280_pressure;Samples;Min_cycle;Max_cycle;Signal;HPM_P1;HPM_P2
2022/09/25 00:00:43;;;;;;;24.15;6.15;;;;;;;8.88;100.00;93526.38;5009878;28;20834;-68
2022/09/25 00:03:12;;;;;;;36.97;6.50;;;;;;;8.95;100.00;93524.31;5008558;28;20037;-68
2022/09/25 00:05:40;;;;;;;63.40;6.20;;;;;;;8.79;100.00;93516.75;5010470;28;20076;-68
2022/09/25 00:08:08;;;;;;;146.15;7.00;;;;;;;8.51;100.00;93519.88;5009476;28;20111;-68
2022/09/25 00:10:50;;;;;;;89.97;6.00;;;;;;;8.45;100.00;93521.50;5009679;28;20657;-68
2022/09/25 00:13:18;;;;;;;41.80;5.07;;;;;;;8.40;100.00;93517.25;4995322;28;20045;-68
2022/09/25 00:15:53;;;;;;;62.65;5.65;;;;;;;8.30;100.00;93518.94;5009386;28;20377;-67
2022/09/25 00:21:13;;;;;;;70.68;5.38;;;;;;;8.11;100.00;93514.91;5010098;28;20406;-68
2022/09/25 00:23:43;;;;;;;34.20;5.88;;;;;;;8.28;100.00;93517.81;5009763;28;20046;-69
2022/09/25 00:26:12;;;;;;;76.05;6.32;;;;;;;8.26;100.00;93512.75;5010262;28;20442;-68
2022/09/25 00:28:40;;;;;;;34.25;5.13;;;;;;;8.39;100.00;93511.03;5009098;28;20050;-68
2022/09/25 00:31:08;;;;;;;47.57;5.37;;;;;;;8.30;100.00;93516.22;5009883;28;20048;-69
2022/09/25 00:33:35;;;;;;;29.88;5.22;;;;;;;8.48;100.00;93505.06;5009389;28;20042;-68
2022/09/25 00:36:07;;;;;;;124.75;43.05;;;;;;;8.50;100.00;93504.66;5009594;28;20419;-69
2022/09/25 00:38:36;;;;;;;51.10;10.85;;;;;;;8.48;100.00;93502.34;5009624;28;20054;-68
2022/09/25 00:41:04;;;;;;;68.78;6.15;;;;;;;8.51;100.00;93498.78;5009988;28;20060;-68
2022/09/25 00:43:36;;;;;;;77.43;6.00;;;;;;;8.22;100.00;93492.88;5009688;28;20046;-69
2022/09/25 00:46:09;;;;;;;80.40;5.95;;;;;;;7.97;100.00;93495.94;5010101;28;20038;-69
2022/09/25 00:48:43;;;;;;;74.70;5.97;;;;;;;7.76;100.00;93497.72;5009479;28;20050;-69
2022/09/25 00:51:10;;;;;;;72.13;6.78;;;;;;;7.95;100.00;93490.88;5009992;28;20080;-66
2022/09/25 00:53:39;;;;;;;94.78;7.25;;;;;;;7.92;100.00;93482.72;5009532;28;20058;-67
2022/09/25 00:56:11;;;;;;;37.23;5.60;;;;;;;8.08;100.00;93487.59;5009759;28;20189;-67
2022/09/25 00:58:40;;;;;;;39.00;6.10;;;;;;;8.11;100.00;93484.03;5009594;28;20053;-69
2022/09/25 01:01:08;;;;;;;21.60;6.95;;;;;;;8.16;100.00;93483.59;5009707;28;20050;-69
2022/09/25 01:03:35;;;;;;;38.67;6.72;;;;;;;8.22;100.00;93483.91;5009665;28;20399;-69
2022/09/25 01:06:02;;;;;;;117.18;6.82;;;;;;;8.03;100.00;93483.38;5009641;28;20056;-69
2022/09/25 01:08:31;;;;;;;44.17;6.00;;;;;;;7.82;100.00;93481.66;5009661;28;20042;-68
2022/09/25 01:10:57;;;;;;;169.32;74.55;;;;;;;8.15;100.00;93482.81;5009750;28;20044;-69
2022/09/25 01:13:25;;;;;;;176.80;11.40;;;;;;;7.89;100.00;93472.63;5009244;28;20058;-69
2022/09/25 01:15:57;;;;;;;32.85;7.32;;;;;;;8.13;100.00;93482.47;5009594;28;20046;-69
2022/09/25 01:18:30;;;;;;;38.08;6.03;;;;;;;8.25;100.00;93483.88;5009327;28;20050;-68
2022/09/25 01:21:18;;;;;;;76.37;6.37;;;;;;;8.16;100.00;93484.38;5009813;28;20060;-69
2022/09/25 01:24:20;;;;;;;133.98;6.70;;;;;;;7.80;100.00;93486.75;5009141;28;20277;-68
2022/09/25 01:26:55;;;;;;;66.22;6.40;;;;;;;8.03;100.00;93482.59;4986185;28;20087;-68
2022/09/25 01:29:31;;;;;;;110.63;6.70;;;;;;;7.94;100.00;93481.13;5009132;28;20402;-68
2022/09/25 01:32:21;;;;;;;95.80;6.85;;;;;;;7.92;100.00;93488.97;5009684;28;20054;-68
2022/09/25 01:34:58;;;;;;;92.33;6.30;;;;;;;7.78;100.00;93480.94;5008684;28;22433;-69
2022/09/25 01:38:01;;;;;;;118.65;7.80;;;;;;;7.72;100.00;93479.84;5008902;28;20053;-69
2022/09/25 01:40:45;;;;;;;150.45;7.32;;;;;;;7.68;100.00;93484.56;5009824;28;20046;-70
2022/09/25 01:43:18;;;;;;;151.40;7.60;;;;;;;7.68;100.00;93490.78;5013212;28;20050;-69
2022/09/25 01:46:08;;;;;;;34.63;6.10;;;;;;;7.78;100.00;93489.13;5010430;28;20678;-69
2022/09/25 01:48:38;;;;;;;30.60;5.50;;;;;;;7.80;100.00;93482.06;5012911;28;20044;-69
2022/09/25 01:51:12;;;;;;;61.60;21.92;;;;;;;8.00;100.00;93482.22;5012863;28;20054;-69
2022/09/25 01:53:45;;;;;;;35.03;6.45;;;;;;;7.92;100.00;93478.03;5012268;28;20050;-69
2022/09/25 01:56:22;;;;;;;122.55;7.13;;;;;;;7.46;100.00;93473.88;5012668;28;20411;-69
2022/09/25 01:58:57;;;;;;;45.85;6.18;;;;;;;7.41;100.00;93471.59;5027225;28;20064;-68
2022/09/25 02:01:34;;;;;;;24.17;5.87;;;;;;;7.75;100.00;93465.38;5012180;28;20833;-68
2022/09/25 02:04:12;;;;;;;33.63;5.55;;;;;;;7.85;100.00;93466.41;5000316;28;20038;-68
2022/09/25 02:06:42;;;;;;;44.10;6.20;;;;;;;7.88;100.00;93460.16;5012212;28;20054;-68
2022/09/25 02:09:14;;;;;;;22.40;6.07;;;;;;;7.82;100.00;93459.81;5012598;28;20050;-67
2022/09/25 02:11:47;;;;;;;29.33;5.25;;;;;;;7.84;100.00;93456.69;5012146;28;20491;-68
2022/09/25 02:14:25;;;;;;;50.63;5.40;;;;;;;7.72;100.00;93455.25;5011968;28;20041;-67
2022/09/25 02:16:57;;;;;;;56.05;5.97;;;;;;;7.75;100.00;93466.16;5011603;28;20321;-68
2022/09/25 02:22:21;;;;;;;25.70;5.43;;;;;;;7.80;100.00;93454.75;5012283;28;20057;-68
2022/09/25 02:24:56;;;;;;;26.67;5.53;;;;;;;7.88;100.00;93460.16;5011635;28;20877;-68
2022/09/25 02:27:27;;;;;;;18.27;5.10;;;;;;;7.85;100.00;93461.75;5011604;28;20060;-68
2022/09/25 02:29:55;;;;;;;21.63;4.72;;;;;;;7.75;100.00;93455.22;5012268;28;20056;-68
2022/09/25 02:32:27;;;;;;;19.23;5.18;;;;;;;7.81;100.00;93452.81;5011331;28;20385;-68
2022/09/25 02:34:56;;;;;;;22.52;4.90;;;;;;;7.81;100.00;93458.28;5012014;28;20045;-67
2022/09/25 02:37:23;;;;;;;63.17;6.63;;;;;;;7.56;100.00;93445.66;5011279;28;20053;-67
2022/09/25 02:39:54;;;;;;;48.97;5.80;;;;;;;7.60;100.00;93448.38;5011855;28;20414;-67
2022/09/25 02:42:43;;;;;;;88.30;5.97;;;;;;;7.40;100.00;93445.47;5011486;28;20272;-68
2022/09/25 02:45:16;;;;;;;21.63;5.25;;;;;;;7.64;100.00;93445.59;5010137;28;20054;-67
2022/09/25 02:48:10;;;;;;;14.23;4.78;;;;;;;7.77;100.00;93444.66;5011855;28;20042;-68
2022/09/25 02:50:42;;;;;;;17.13;5.40;;;;;;;7.82;100.00;93446.16;5001227;28;20054;-68
2022/09/25 02:53:36;;;;;;;41.27;5.20;;;;;;;7.77;100.00;93439.19;5010825;28;20402;-67
2022/09/25 02:56:12;;;;;;;35.03;4.75;;;;;;;7.65;100.00;93439.75;5010830;28;20442;-68
2022/09/25 02:58:45;;;;;;;77.57;6.70;;;;;;;7.57;100.00;93441.00;5011081;28;20453;-67
2022/09/25 03:01:15;;;;;;;35.97;5.40;;;;;;;7.58;100.00;93439.81;5011525;28;20411;-68
2022/09/25 03:03:45;;;;;;;16.48;5.38;;;;;;;7.68;100.00;93438.91;5011022;28;20041;-67
2022/09/25 03:06:12;;;;;;;51.83;5.90;;;;;;;7.73;100.00;93440.44;5011248;28;20046;-67
2022/09/25 03:08:45;;;;;;;22.20;5.30;;;;;;;7.53;100.00;93438.31;5011127;28;20053;-68
2022/09/25 03:11:14;;;;;;;23.35;5.78;;;;;;;7.33;100.00;93437.38;5011170;28;20115;-67
2022/09/25 03:13:42;;;;;;;17.88;5.30;;;;;;;7.46;100.00;93434.88;5011042;28;20078;-67
2022/09/25 03:16:20;;;;;;;41.28;5.55;;;;;;;7.54;100.00;93445.31;5011131;28;20533;-68
2022/09/25 03:18:47;;;;;;;34.23;5.20;;;;;;;7.40;100.00;93450.94;5010432;28;20700;-68
2022/09/25 03:21:14;;;;;;;138.70;6.47;;;;;;;7.05;100.00;93455.56;5010845;28;20453;-68
2022/09/25 03:23:40;;;;;;;134.13;6.80;;;;;;;6.59;100.00;93452.06;5010729;28;20042;-68
2022/09/25 03:26:07;;;;;;;29.55;5.00;;;;;;;7.01;100.00;93452.09;5011033;28;20064;-67
2022/09/25 03:28:34;;;;;;;23.95;6.05;;;;;;;7.28;100.00;93452.22;5010453;28;20072;-67
2022/09/25 03:31:06;;;;;;;17.90;4.97;;;;;;;7.45;100.00;93453.22;5011290;28;20438;-67
2022/09/25 03:33:39;;;;;;;119.72;6.78;;;;;;;7.43;100.00;93450.13;5010423;28;20038;-67
2022/09/25 03:36:08;;;;;;;62.33;7.07;;;;;;;7.53;100.00;93443.78;5011131;28;20446;-68
2022/09/25 03:38:35;;;;;;;32.85;5.03;;;;;;;7.53;100.00;93451.97;5010581;28;20056;-68
2022/09/25 03:41:08;;;;;;;46.70;5.55;;;;;;;7.59;100.00;93446.84;5010732;28;20115;-67
2022/09/25 03:43:36;;;;;;;99.03;7.60;;;;;;;7.46;100.00;93446.56;5010122;28;20080;-68
2022/09/25 03:46:04;;;;;;;38.10;5.13;;;;;;;7.60;100.00;93443.66;5009874;28;20042;-67
2022/09/25 03:48:31;;;;;;;17.80;6.30;;;;;;;7.68;100.00;93451.78;5010552;28;20081;-68
2022/09/25 03:50:59;;;;;;;150.45;6.65;;;;;;;7.17;100.00;93443.38;5010973;28;20052;-67
2022/09/25 03:53:30;;;;;;;42.50;6.20;;;;;;;7.35;100.00;93452.16;5008823;28;20052;-68
2022/09/25 03:56:04;;;;;;;60.90;5.50;;;;;;;7.49;100.00;93450.47;5010530;28;20558;-67
2022/09/25 03:58:31;;;;;;;64.80;5.50;;;;;;;7.54;100.00;93460.91;5010043;28;20292;-67
2022/09/25 04:00:58;;;;;;;36.92;5.05;;;;;;;7.55;100.00;93460.53;5010562;28;20037;-67
2022/09/25 04:03:29;;;;;;;46.55;5.50;;;;;;;7.30;100.00;93452.59;5009595;28;20068;-67
2022/09/25 04:05:57;;;;;;;17.35;5.53;;;;;;;7.45;100.00;93463.38;5010584;28;20107;-68
2022/09/25 04:08:25;;;;;;;126.73;38.10;;;;;;;7.54;100.00;93456.22;5010093;28;20046;-67
2022/09/25 04:11:00;;;;;;;28.30;13.55;;;;;;;7.57;100.00;93458.16;5010542;28;20450;-67
2022/09/25 04:13:33;;;;;;;27.20;5.57;;;;;;;7.60;100.00;93457.31;5009836;28;20040;-68
2022/09/25 04:16:02;;;;;;;41.00;5.05;;;;;;;7.53;100.00;93462.88;5010195;28;20046;-68
2022/09/25 04:18:30;;;;;;;17.38;4.60;;;;;;;7.41;100.00;93455.22;5009400;28;20038;-67
2022/09/25 04:21:02;;;;;;;28.17;4.60;;;;;;;7.44;100.00;93445.44;5009814;28;20064;-67
2022/09/25 04:23:29;;;;;;;33.42;4.88;;;;;;;7.32;100.00;93450.22;5008961;28;20182;-67
2022/09/25 04:25:56;;;;;;;17.40;4.30;;;;;;;7.44;100.00;93448.94;5009792;28;20099;-67
2022/09/25 04:28:23;;;;;;;7.70;4.32;;;;;;;7.53;100.00;93449.22;5008981;28;20048;-68
2022/09/25 04:30:50;;;;;;;20.52;4.80;;;;;;;7.54;100.00;93450.00;5009659;28;20406;-67
2022/09/25 04:36:04;;;;;;;21.30;4.75;;;;;;;7.60;100.00;93453.81;5007946;28;20842;-67
2022/09/25 04:38:31;;;;;;;29.40;5.68;;;;;;;7.69;100.00;93451.41;5009034;28;20038;-67
2022/09/25 04:40:59;;;;;;;97.03;5.25;;;;;;;7.63;100.00;93455.75;5009405;28;20599;-68
2022/09/25 04:43:28;;;;;;;66.03;5.40;;;;;;;7.48;100.00;93451.63;5009088;28;20111;-67
2022/09/25 04:45:54;;;;;;;60.30;4.73;;;;;;;7.31;100.00;93467.03;5009397;28;20046;-68
2022/09/25 04:48:21;;;;;;;66.05;5.35;;;;;;;7.07;100.00;93458.66;5008711;28;20057;-67
2022/09/25 04:50:50;;;;;;;95.22;5.43;;;;;;;7.18;100.00;93464.00;5009640;28;20046;-67
2022/09/25 04:53:17;;;;;;;34.97;5.05;;;;;;;7.18;100.00;93462.09;5009213;28;20100;-68
2022/09/25 04:55:45;;;;;;;56.42;6.03;;;;;;;7.27;100.00;93460.84;5008641;28;20064;-67
2022/09/25 04:58:11;;;;;;;29.40;5.00;;;;;;;7.32;100.00;93460.38;5009617;28;20052;-67
2022/09/25 05:00:39;;;;;;;25.55;4.97;;;;;;;7.47;100.00;93458.28;5006688;28;20046;-67
2022/09/25 05:03:06;;;;;;;12.95;5.15;;;;;;;7.52;100.00;93464.06;4993317;28;20104;-67
2022/09/25 05:05:34;;;;;;;23.65;4.90;;;;;;;7.58;100.00;93465.16;5001844;28;20072;-68
2022/09/25 05:08:02;;;;;;;32.35;4.75;;;;;;;7.65;100.00;93466.28;5009301;28;20054;-68
2022/09/25 05:10:31;;;;;;;32.77;5.30;;;;;;;7.49;100.00;93464.13;5008269;28;20076;-67
2022/09/25 05:13:02;;;;;;;36.47;4.53;;;;;;;7.36;100.00;93472.03;5009331;28;20107;-67
2022/09/25 05:15:31;;;;;;;33.90;4.70;;;;;;;7.31;100.00;93462.34;5009762;28;20075;-67
2022/09/25 05:18:11;;;;;;;31.23;5.00;;;;;;;7.12;100.00;93473.81;5013012;28;20048;-67
2022/09/25 05:20:37;;;;;;;63.30;5.28;;;;;;;7.25;100.00;93471.38;5012244;28;20049;-67
2022/09/25 05:23:04;;;;;;;28.37;4.53;;;;;;;7.36;100.00;93474.75;5012979;28;20084;-67
2022/09/25 05:25:31;;;;;;;42.85;4.50;;;;;;;7.40;100.00;93467.31;5012185;28;20048;-67
2022/09/25 05:27:59;;;;;;;17.85;4.43;;;;;;;7.33;100.00;93468.16;5012678;28;20049;-67
2022/09/25 05:30:29;;;;;;;43.88;4.80;;;;;;;7.33;100.00;93461.94;5011991;28;20069;-68
2022/09/25 05:32:59;;;;;;;39.05;5.32;;;;;;;7.38;100.00;93461.47;5012607;28;20364;-68
2022/09/25 05:35:30;;;;;;;56.97;5.10;;;;;;;7.53;100.00;93456.66;5012148;28;20052;-67
2022/09/25 05:37:57;;;;;;;15.85;4.88;;;;;;;7.55;100.00;93463.25;5012653;28;20065;-67
2022/09/25 05:40:24;;;;;;;29.27;5.88;;;;;;;7.57;100.00;93463.63;5011930;28;20100;-67
2022/09/25 05:42:51;;;;;;;28.38;5.45;;;;;;;7.66;100.00;93465.09;5012540;28;20325;-67
2022/09/25 05:45:20;;;;;;;12.77;5.28;;;;;;;7.74;100.00;93466.53;5012064;28;20049;-68
2022/09/25 05:47:47;;;;;;;22.73;6.20;;;;;;;7.57;100.00;93468.31;5011238;28;20042;-68
2022/09/25 05:50:16;;;;;;;83.68;41.60;;;;;;;7.75;100.00;93470.84;5012170;28;20389;-67
2022/09/25 05:52:43;;;;;;;34.78;11.43;;;;;;;7.59;100.00;93463.22;5027113;28;20068;-68
2022/09/25 05:55:10;;;;;;;15.02;5.85;;;;;;;7.65;100.00;93466.28;5012557;28;20119;-67
2022/09/25 05:57:37;;;;;;;11.75;5.22;;;;;;;7.75;100.00;93468.09;5011511;28;20068;-68
2022/09/25 06:00:10;;;;;;;9.00;5.03;;;;;;;7.88;100.00;93462.88;5012365;28;20450;-68
2022/09/25 06:02:36;;;;;;;9.68;5.35;;;;;;;8.03;100.00;93460.72;5011299;28;20050;-70
2022/09/25 06:05:04;;;;;;;10.65;5.60;;;;;;;8.03;99.08;93456.06;5012331;28;20107;-68
2022/09/25 06:07:30;;;;;;;15.05;5.00;;;;;;;8.02;97.57;93461.94;5010271;28;20560;-68
2022/09/25 06:09:57;;;;;;;10.45;5.40;;;;;;;7.87;98.90;93464.84;5012079;28;20056;-68
2022/09/25 06:12:24;;;;;;;9.53;5.30;;;;;;;8.11;98.87;93473.09;5011334;28;20046;-68
2022/09/25 06:14:51;;;;;;;9.98;5.35;;;;;;;8.08;97.53;93476.69;5010364;28;20050;-68
2022/09/25 06:17:19;;;;;;;10.73;5.80;;;;;;;8.05;97.04;93481.00;5012240;28;20042;-68
2022/09/25 06:19:45;;;;;;;10.90;5.22;;;;;;;7.88;97.35;93488.22;5011143;28;20478;-68
2022/09/25 06:22:12;;;;;;;15.90;5.78;;;;;;;7.96;97.80;93486.19;5011846;28;20057;-68
2022/09/25 06:24:40;;;;;;;13.40;5.97;;;;;;;7.79;99.12;93483.25;5011292;28;20076;-67
2022/09/25 06:27:07;;;;;;;12.18;6.20;;;;;;;8.03;98.64;93480.66;5010672;28;20050;-68
2022/09/25 06:29:34;;;;;;;10.75;6.00;;;;;;;8.09;98.13;93486.41;5010908;28;20060;-68
2022/09/25 06:32:02;;;;;;;14.20;6.15;;;;;;;8.13;97.09;93484.41;5011294;28;20122;-68
2022/09/25 06:34:28;;;;;;;13.88;6.53;;;;;;;8.08;98.15;93480.19;5010712;28;20050;-68
2022/09/25 06:36:55;;;;;;;12.70;6.60;;;;;;;8.11;98.07;93479.38;5011391;28;20514;-68
2022/09/25 06:39:22;;;;;;;11.07;6.70;;;;;;;8.11;97.06;93473.91;5009627;28;20060;-68
2022/09/25 06:41:51;;;;;;;13.32;6.70;;;;;;;8.18;96.46;93473.78;5011279;28;20046;-68
2022/09/25 06:44:19;;;;;;;11.18;5.70;;;;;;;8.21;96.75;93474.94;5011271;28;20050;-69
2022/09/25 06:46:49;;;;;;;11.15;5.80;;;;;;;8.32;96.10;93483.75;5010207;28;20735;-66
2022/09/25 06:49:16;;;;;;;8.17;4.97;;;;;;;8.29;96.08;93483.81;5011443;28;20487;-67
2022/09/25 06:51:43;;;;;;;7.70;4.55;;;;;;;8.38;95.76;93487.59;5010856;28;20050;-67
2022/09/25 06:54:09;;;;;;;7.95;5.20;;;;;;;8.38;95.64;93490.31;5010948;28;20061;-67
2022/09/25 06:56:36;;;;;;;8.05;4.90;;;;;;;8.32;95.21;93489.22;5010347;28;20072;-68
2022/09/25 06:59:03;;;;;;;13.60;8.82;;;;;;;8.30;95.63;93491.59;5011142;28;20045;-67
2022/09/25 07:01:30;;;;;;;15.90;10.10;;;;;;;8.28;95.36;93491.25;5010120;28;20054;-67
2022/09/25 07:03:57;;;;;;;21.20;14.93;;;;;;;8.28;95.78;93487.75;5009676;28;20046;-67
2022/09/25 07:06:30;;;;;;;34.20;19.83;;;;;;;8.39;94.71;93489.16;5010275;28;20371;-67
2022/09/25 07:08:56;;;;;;;49.33;26.05;;;;;;;8.42;94.54;93489.53;5010903;28;20037;-68
2022/09/25 07:11:25;;;;;;;17.77;10.27;;;;;;;8.51;94.32;93485.13;5010559;28;20052;-67
2022/09/25 07:13:53;;;;;;;22.00;12.33;;;;;;;8.80;93.96;93490.16;5010570;28;20046;-68
2022/09/25 07:16:24;;;;;;;13.98;8.15;;;;;;;9.08;92.01;93483.44;5006270;28;20042;-68
2022/09/25 07:18:56;;;;;;;15.63;9.45;;;;;;;9.31;89.45;93479.91;5011021;28;20380;-67
2022/09/25 07:21:23;;;;;;;17.40;9.70;;;;;;;9.55;89.07;93482.63;5010117;28;20054;-68
2022/09/25 07:23:51;;;;;;;13.57;7.82;;;;;;;9.39;88.18;93480.56;5010336;28;20111;-68
2022/09/25 07:26:21;;;;;;;13.07;7.73;;;;;;;9.91;87.52;93479.22;5010357;28;20068;-68
2022/09/25 07:29:02;;;;;;;14.73;9.23;;;;;;;10.16;86.36;93473.22;5009586;28;20923;-68
2022/09/25 07:31:31;;;;;;;12.82;7.82;;;;;;;10.33;84.38;93476.81;5009533;28;20038;-68
2022/09/25 07:34:01;;;;;;;11.95;6.90;;;;;;;10.41;84.09;93480.97;5010455;28;20372;-68
2022/09/25 07:36:28;;;;;;;10.15;6.50;;;;;;;10.04;84.46;93479.34;5009422;28;20049;-68
2022/09/25 07:38:55;;;;;;;11.13;7.17;;;;;;;9.60;86.59;93477.44;5010005;28;20050;-68
2022/09/25 07:41:22;;;;;;;10.50;6.88;;;;;;;10.11;85.70;93479.97;5009740;28;20183;-66
2022/09/25 07:43:56;;;;;;;9.50;6.57;;;;;;;11.08;81.92;93471.59;5009954;28;20099;-68
2022/09/25 07:46:44;;;;;;;10.23;6.28;;;;;;;11.83;79.15;93472.41;5009325;28;20403;-65
2022/09/25 07:49:12;;;;;;;9.30;6.07;;;;;;;12.31;76.79;93464.41;5010011;28;20406;-68
2022/09/25 07:51:39;;;;;;;10.00;5.70;;;;;;;12.81;74.67;93471.19;5009586;28;20065;-68
2022/09/25 07:54:06;;;;;;;8.00;5.40;;;;;;;12.41;75.64;93476.31;5010094;28;20058;-68
2022/09/25 07:56:33;;;;;;;7.85;5.05;;;;;;;12.82;75.39;93469.19;5009451;28;20053;-68
2022/09/25 07:59:00;;;;;;;9.00;5.95;;;;;;;13.12;73.51;93476.09;5009893;28;20419;-68
2022/09/25 08:01:26;;;;;;;8.57;5.55;;;;;;;12.94;73.37;93476.69;5009427;28;20054;-68
2022/09/25 08:03:53;;;;;;;6.90;4.50;;;;;;;12.75;74.78;93470.94;5009859;28;20042;-67
2022/09/25 08:06:20;;;;;;;7.45;4.30;;;;;;;12.99;73.68;93476.13;5009354;28;20410;-67
2022/09/25 08:08:47;;;;;;;7.45;4.50;;;;;;;12.91;73.23;93472.81;5008556;28;20042;-68
2022/09/25 08:11:16;;;;;;;6.30;4.38;;;;;;;12.80;74.38;93472.41;5009772;28;20056;-68
2022/09/25 08:13:43;;;;;;;7.80;4.50;;;;;;;12.71;75.13;93473.03;5009289;28;20072;-68
2022/09/25 08:16:15;;;;;;;7.57;4.87;;;;;;;12.29;76.30;93469.59;5008445;28;20392;-68
2022/09/25 08:18:45;;;;;;;6.65;4.72;;;;;;;12.52;76.48;93472.06;5009820;28;20034;-68
2022/09/25 08:21:13;;;;;;;7.53;4.78;;;;;;;12.47;76.63;93482.81;5009757;28;20414;-68
2022/09/25 08:23:42;;;;;;;8.00;5.18;;;;;;;12.47;76.52;93483.59;5009005;28;20049;-68
2022/09/25 08:26:14;;;;;;;8.27;5.68;;;;;;;12.19;78.15;93479.69;5009806;28;20437;-68
2022/09/25 08:28:41;;;;;;;9.53;5.70;;;;;;;11.90;79.27;93483.25;5009102;28;20050;-67
2022/09/25 08:31:08;;;;;;;9.65;6.43;;;;;;;11.19;83.64;93489.34;5009380;28;20406;-67
2022/09/25 08:33:36;;;;;;;10.68;6.68;;;;;;;11.37;83.77;93480.66;5009012;28;20045;-67
2022/09/25 08:36:04;;;;;;;9.48;5.88;;;;;;;11.82;81.98;93478.34;5009709;28;20099;-68
2022/09/25 08:38:32;;;;;;;9.02;5.70;;;;;;;11.59;83.40;93480.91;5009155;28;20041;-69
2022/09/25 08:41:10;;;;;;;10.20;6.07;;;;;;;11.65;83.50;93481.16;5009637;28;20050;-69
2022/09/25 08:43:42;;;;;;;8.95;5.60;;;;;;;11.51;84.47;93478.75;5008731;28;20053;-69
2022/09/25 08:49:27;;;;;;;8.55;5.70;;;;;;;12.92;79.21;93474.38;5007198;28;21582;-69
2022/09/25 08:52:00;;;;;;;9.40;5.43;;;;;;;13.33;77.19;93471.94;5013144;28;20044;-69
2022/09/25 08:54:30;;;;;;;9.30;6.10;;;;;;;13.25;76.23;93473.34;5013165;28;20056;-69
2022/09/25 08:57:15;;;;;;;10.52;5.90;;;;;;;13.49;76.99;93473.78;5013405;28;20061;-69
2022/09/25 08:59:50;;;;;;;8.20;5.53;;;;;;;14.80;71.54;93465.97;5012820;28;20040;-69
2022/09/25 09:02:25;;;;;;;8.73;5.97;;;;;;;15.65;67.25;93470.00;5013131;28;20046;-67
2022/09/25 09:04:55;;;;;;;10.32;5.57;;;;;;;14.69;69.96;93474.63;5012270;28;20834;-67
2022/09/25 09:07:38;;;;;;;8.60;5.80;;;;;;;15.90;67.02;93468.25;5011568;28;20461;-70
2022/09/25 09:10:36;;;;;;;11.73;6.60;;;;;;;13.31;77.05;93477.88;5013198;28;20069;-69
2022/09/25 09:13:21;;;;;;;9.00;5.82;;;;;;;14.72;72.27;93470.97;5011987;28;20651;-69
2022/09/25 09:16:00;;;;;;;8.93;5.95;;;;;;;15.51;68.64;93473.38;5010618;28;20042;-67
2022/09/25 09:18:29;;;;;;;11.35;6.47;;;;;;;14.81;69.39;93473.00;5012873;28;20042;-69
2022/09/25 09:21:03;;;;;;;9.77;6.07;;;;;;;14.24;71.61;93471.13;5013028;28;20049;-69
2022/09/25 09:23:35;;;;;;;9.60;5.95;;;;;;;15.54;68.27;93472.47;5012403;28;20049;-69
2022/09/25 09:26:03;;;;;;;8.90;5.85;;;;;;;14.74;69.59;93476.81;5013049;28;20068;-69
2022/09/25 09:28:57;;;;;;;9.38;5.50;;;;;;;15.14;68.90;93468.53;5012396;28;20046;-69
2022/09/25 09:32:02;;;;;;;9.05;5.20;;;;;;;15.52;66.79;93470.16;5012545;28;20080;-69
2022/09/25 09:34:49;;;;;;;7.93;5.20;;;;;;;13.94;70.73;93465.13;4992532;28;20408;-69
2022/09/25 09:37:57;;;;;;;8.63;5.10;;;;;;;13.16;72.73;93465.78;4998654;28;20484;-69
2022/09/25 09:40:48;;;;;;;8.20;5.25;;;;;;;13.55;73.60;93461.72;5011793;28;20495;-67
2022/09/25 09:43:30;;;;;;;7.30;5.13;;;;;;;14.39;71.42;93452.06;5012621;28;20068;-67
2022/09/25 09:46:12;;;;;;;6.97;4.38;;;;;;;12.73;75.46;93454.09;5011513;28;20068;-67
2022/09/25 09:49:09;;;;;;;7.37;4.53;;;;;;;12.95;74.28;93454.19;5011712;28;20076;-67
2022/09/25 09:52:16;;;;;;;8.27;4.93;;;;;;;12.98;73.85;93461.59;5011707;28;20050;-67
2022/09/25 09:54:54;;;;;;;7.78;5.05;;;;;;;12.84;74.95;93456.53;5011391;28;20042;-67
2022/09/25 09:57:25;;;;;;;7.72;4.85;;;;;;;13.02;74.55;93457.94;5011708;28;20052;-67
2022/09/25 10:00:00;;;;;;;7.93;4.80;;;;;;;13.13;74.71;93456.38;5011978;28;20046;-67
2022/09/25 10:02:59;;;;;;;8.53;4.77;;;;;;;12.96;73.65;93458.50;5011482;28;20054;-67
2022/09/25 10:05:35;;;;;;;8.35;4.90;;;;;;;13.20;73.65;93458.16;5005081;28;20061;-67
2022/09/25 10:08:02;;;;;;;8.43;5.50;;;;;;;12.98;74.97;93458.06;5012220;28;20437;-67
2022/09/25 10:10:41;;;;;;;8.43;5.28;;;;;;;13.25;73.97;93465.09;5011740;28;20045;-67
2022/09/25 10:13:18;;;;;;;9.60;5.55;;;;;;;12.69;75.66;93452.69;5011907;28;20056;-66
2022/09/25 10:16:03;;;;;;;7.93;5.60;;;;;;;12.51;76.47;93458.72;5007028;28;20739;-67
2022/09/25 10:18:39;;;;;;;8.90;5.28;;;;;;;12.84;75.21;93453.78;5011911;28;20048;-67
2022/09/25 10:21:15;;;;;;;10.23;5.65;;;;;;;12.69;75.06;93447.94;5011815;28;20057;-67
2022/09/25 10:23:52;;;;;;;7.55;4.72;;;;;;;12.68;75.18;93453.91;5011219;28;20068;-67
2022/09/25 10:26:24;;;;;;;8.30;4.70;;;;;;;12.89;74.73;93452.44;5011257;28;20387;-64
2022/09/25 10:28:51;;;;;;;8.77;5.10;;;;;;;12.26;76.01;93446.47;5011066;28;20060;-67
2022/09/25 10:31:19;;;;;;;9.32;5.43;;;;;;;12.10;77.17;93439.06;5011283;28;20485;-67
2022/09/25 10:34:02;;;;;;;7.90;5.03;;;;;;;13.05;74.41;93441.31;5010019;28;21754;-67
2022/09/25 10:36:32;;;;;;;8.63;4.80;;;;;;;13.69;71.13;93437.66;5011140;28;20049;-67
2022/09/25 10:38:59;;;;;;;6.75;4.28;;;;;;;14.11;69.73;93434.59;5011383;28;20042;-67
2022/09/25 10:41:46;;;;;;;7.10;4.77;;;;;;;14.02;69.35;93434.50;5010375;28;21685;-67
2022/09/25 10:44:32;;;;;;;7.60;4.75;;;;;;;13.68;69.86;93436.88;5011500;28;20038;-67
2022/09/25 10:50:14;;;;;;;8.25;5.07;;;;;;;14.12;69.96;93436.88;5010267;28;21026;-67
2022/09/25 10:52:49;;;;;;;7.40;4.97;;;;;;;14.27;68.50;93439.88;4997894;28;20072;-67
2022/09/25 10:55:33;;;;;;;6.17;4.23;;;;;;;16.70;60.77;93433.03;5011344;28;20057;-67
2022/09/25 10:58:12;;;;;;;7.25;4.40;;;;;;;15.05;64.97;93432.59;5010216;28;21741;-68
2022/09/25 11:00:53;;;;;;;5.88;4.00;;;;;;;15.41;61.94;93433.88;5010520;28;20046;-67
2022/09/25 11:03:38;;;;;;;6.20;4.13;;;;;;;15.53;62.26;93429.44;5009705;28;20053;-66
2022/09/25 11:06:08;;;;;;;5.85;4.13;;;;;;;15.33;62.91;93438.97;5011108;28;20111;-67
2022/09/25 11:08:38;;;;;;;6.47;4.40;;;;;;;14.47;65.89;93441.53;5010736;28;20053;-67
2022/09/25 11:11:08;;;;;;;5.75;3.78;;;;;;;15.36;63.15;93440.78;5011179;28;20407;-67
2022/09/25 11:13:53;;;;;;;7.13;4.30;;;;;;;14.63;65.86;93441.34;5009919;28;20037;-67
2022/09/25 11:16:20;;;;;;;6.78;4.47;;;;;;;14.88;65.48;93442.34;5006566;28;20049;-65
2022/09/25 11:19:27;;;;;;;6.63;3.92;;;;;;;16.01;61.08;93435.31;4997439;28;20042;-67
2022/09/25 11:21:58;;;;;;;5.87;3.83;;;;;;;15.41;62.28;93449.72;4967728;28;20881;-67
2022/09/25 11:24:39;;;;;;;5.53;3.53;;;;;;;16.02;61.30;93439.63;4968525;28;20057;-67
2022/09/25 11:27:11;;;;;;;5.70;3.40;;;;;;;15.84;61.13;93440.41;4994467;28;20084;-67
2022/09/25 11:29:37;;;;;;;5.90;4.00;;;;;;;15.30;62.01;93442.63;5009963;28;20050;-68
2022/09/25 11:32:18;;;;;;;6.65;3.58;;;;;;;15.27;61.98;93442.75;5010333;28;20054;-67
2022/09/25 11:35:03;;;;;;;6.63;3.50;;;;;;;15.01;62.53;93442.22;5009380;28;20630;-67
2022/09/25 11:38:07;;;;;;;5.23;3.33;;;;;;;14.72;63.02;93435.06;4997948;28;20386;-67
2022/09/25 11:41:13;;;;;;;6.97;3.97;;;;;;;14.64;64.07;93431.06;5009966;28;20504;-67
2022/09/25 11:44:08;;;;;;;6.80;3.83;;;;;;;14.71;63.56;93433.56;5009664;28;20052;-67
2022/09/25 11:47:00;;;;;;;6.35;3.60;;;;;;;14.60;63.68;93438.72;5009917;28;20073;-67
2022/09/25 11:49:33;;;;;;;6.37;3.90;;;;;;;14.53;65.05;93432.22;5024935;28;20050;-66
2022/09/25 11:52:04;;;;;;;8.55;4.47;;;;;;;14.21;65.73;93438.19;5009855;28;20042;-67
2022/09/25 11:55:02;;;;;;;9.30;4.82;;;;;;;14.16;65.91;93436.75;5009893;28;20551;-67
2022/09/25 11:57:57;;;;;;;7.43;4.53;;;;;;;14.11;66.19;93438.09;5009618;28;20516;-67
2022/09/25 12:00:45;;;;;;;8.13;4.70;;;;;;;14.31;65.22;93440.53;5009772;28;20104;-67
2022/09/25 12:03:46;;;;;;;8.07;4.30;;;;;;;14.57;65.09;93435.63;5010429;28;20042;-67
2022/09/25 12:06:13;;;;;;;8.40;4.45;;;;;;;15.22;63.21;93435.84;5009237;28;20663;-67
2022/09/25 12:09:09;;;;;;;6.97;4.53;;;;;;;15.95;60.81;93426.09;5009541;28;20058;-68
2022/09/25 12:11:47;;;;;;;9.70;5.50;;;;;;;15.23;63.51;93436.63;5009551;28;20721;-67